createdAt,value
2018-10-12T00:00:40.247Z,11.10
2018-10-12T00:01:40.117Z,11.03
2018-10-12T00:02:39.994Z,11.10
2018-10-12T00:03:39.867Z,11.01
2018-10-12T00:04:39.744Z,10.99
2018-10-12T00:05:39.615Z,10.88
2018-10-12T00:06:39.491Z,10.88
2018-10-12T00:07:39.365Z,10.94
2018-10-12T00:08:39.240Z,10.86
2018-10-12T00:09:39.113Z,10.83
2018-10-12T00:10:38.988Z,10.77
2018-10-12T00:11:38.861Z,10.80
2018-10-12T00:12:38.735Z,10.80
2018-10-12T00:13:38.612Z,10.77
2018-10-12T00:14:38.486Z,10.68
2018-10-12T00:15:38.358Z,10.73
2018-10-12T00:16:38.233Z,10.73
2018-10-12T00:17:38.115Z,10.63
2018-10-12T00:18:37.983Z,10.74
2018-10-12T00:19:37.854Z,10.70
2018-10-12T00:20:37.733Z,10.66
2018-10-12T00:21:37.605Z,10.70
2018-10-12T00:22:37.478Z,10.76
2018-10-12T00:23:37.353Z,10.73
2018-10-12T00:24:37.227Z,10.73
2018-10-12T00:25:37.100Z,10.74
2018-10-12T00:26:36.973Z,10.74
2018-10-12T00:27:36.846Z,10.62
2018-10-12T00:28:36.722Z,10.63
2018-10-12T00:29:36.597Z,10.76
2018-10-12T00:30:36.471Z,10.74
2018-10-12T00:31:36.346Z,10.70
2018-10-12T00:32:36.218Z,10.74
2018-10-12T00:33:36.095Z,10.73
2018-10-12T00:34:35.974Z,10.73
2018-10-12T00:35:35.838Z,10.68
2018-10-12T00:36:35.721Z,10.73
2018-10-12T00:37:35.588Z,10.68
2018-10-12T00:38:35.463Z,10.66
2018-10-12T00:39:35.338Z,10.71
2018-10-12T00:40:35.210Z,10.68
2018-10-12T00:41:35.087Z,10.86
2018-10-12T00:42:34.960Z,10.88
2018-10-12T00:43:34.834Z,10.80
2018-10-12T00:44:34.709Z,10.83
2018-10-12T00:45:34.584Z,10.76
2018-10-12T00:46:34.455Z,10.65
2018-10-12T00:47:34.328Z,10.73
2018-10-12T00:48:34.204Z,10.78
2018-10-12T00:49:34.103Z,10.74
2018-10-12T00:50:33.955Z,10.86
2018-10-12T00:51:33.825Z,10.71
2018-10-12T00:52:33.702Z,10.77
2018-10-12T00:53:33.576Z,10.78
2018-10-12T00:54:33.448Z,10.73
2018-10-12T00:55:33.322Z,10.76
2018-10-12T00:56:33.197Z,10.65
2018-10-12T00:57:33.071Z,10.70
2018-10-12T00:58:32.944Z,10.78
2018-10-12T00:59:32.818Z,10.83
2018-10-12T01:00:32.692Z,10.73
2018-10-12T01:01:32.565Z,10.73
2018-10-12T01:02:32.440Z,10.81
2018-10-12T01:03:32.325Z,10.84
2018-10-12T01:04:32.189Z,10.83
2018-10-12T01:05:32.065Z,10.88
2018-10-12T01:06:31.981Z,10.84
2018-10-12T01:07:31.810Z,10.83
2018-10-12T01:08:31.686Z,10.83
2018-10-12T01:09:31.558Z,10.92
2018-10-12T01:10:31.438Z,10.92
2018-10-12T01:11:31.307Z,10.89
2018-10-12T01:12:31.187Z,10.84
2018-10-12T01:13:31.054Z,10.89
2018-10-12T01:14:30.930Z,10.91
2018-10-12T01:15:30.803Z,10.92
2018-10-12T01:16:30.677Z,10.88
2018-10-12T01:17:30.556Z,10.98
2018-10-12T01:18:30.426Z,10.92
2018-10-12T01:19:30.299Z,10.94
2018-10-12T01:20:30.174Z,10.88
2018-10-12T01:21:30.048Z,10.92
2018-10-12T01:22:29.927Z,10.89
2018-10-12T01:23:29.797Z,10.89
2018-10-12T01:24:29.671Z,10.99
2018-10-12T01:25:29.545Z,10.96
2018-10-12T01:26:29.421Z,10.91
2018-10-12T01:27:29.293Z,11.02
2018-10-12T01:28:29.169Z,10.99
2018-10-12T01:29:29.088Z,10.96
2018-10-12T01:30:28.917Z,10.98
2018-10-12T01:31:28.802Z,11.02
2018-10-12T01:32:28.664Z,10.95
2018-10-12T01:33:28.538Z,10.77
2018-10-12T01:34:28.415Z,10.73
2018-10-12T01:35:28.286Z,10.77
2018-10-12T01:36:28.164Z,10.71
2018-10-12T01:37:28.037Z,10.71
2018-10-12T01:38:27.910Z,10.78
2018-10-12T01:39:27.784Z,10.73
2018-10-12T01:40:27.661Z,10.81
2018-10-12T01:41:27.534Z,10.81
2018-10-12T01:42:27.408Z,10.83
2018-10-12T01:43:27.287Z,10.77
2018-10-12T01:44:27.160Z,10.83
2018-10-12T01:45:27.030Z,10.89
2018-10-12T01:46:26.906Z,10.96
2018-10-12T01:47:26.778Z,10.94
2018-10-12T01:48:26.653Z,10.94
2018-10-12T01:49:26.530Z,11.01
2018-10-12T01:50:26.402Z,10.98
2018-10-12T01:51:26.280Z,11.02
2018-10-12T01:52:26.159Z,11.03
2018-10-12T01:53:26.026Z,11.01
2018-10-12T01:54:25.902Z,11.02
2018-10-12T01:55:25.776Z,11.06
2018-10-12T01:56:25.648Z,11.02
2018-10-12T01:57:25.525Z,11.13
2018-10-12T01:58:25.401Z,11.20
2018-10-12T01:59:25.276Z,11.24
2018-10-12T02:00:25.150Z,11.25
2018-10-12T02:01:25.022Z,11.17
2018-10-12T02:02:24.898Z,11.17
2018-10-12T02:03:24.772Z,11.24
2018-10-12T02:04:24.646Z,11.21
2018-10-12T02:05:24.522Z,11.21
2018-10-12T02:06:24.397Z,11.19
2018-10-12T02:07:24.271Z,11.17
2018-10-12T02:08:24.145Z,11.24
2018-10-12T02:09:24.024Z,11.13
2018-10-12T02:10:23.894Z,11.19
2018-10-12T02:11:23.768Z,11.19
2018-10-12T02:12:23.643Z,11.10
2018-10-12T02:13:23.517Z,11.16
2018-10-12T02:14:23.391Z,11.19
2018-10-12T02:15:23.266Z,11.25
2018-10-12T02:16:23.139Z,11.19
2018-10-12T02:17:23.024Z,11.09
2018-10-12T02:18:22.890Z,10.99
2018-10-12T02:19:22.763Z,10.86
2018-10-12T02:20:22.637Z,10.84
2018-10-12T02:21:22.532Z,10.78
2018-10-12T02:22:22.389Z,10.83
2018-10-12T02:23:22.261Z,10.76
2018-10-12T02:24:22.145Z,10.78
2018-10-12T02:25:22.010Z,10.81
2018-10-12T02:26:21.887Z,10.84
2018-10-12T02:27:21.760Z,10.86
2018-10-12T02:28:21.634Z,10.86
2018-10-12T02:29:21.511Z,10.81
2018-10-12T02:30:21.396Z,10.77
2018-10-12T02:31:21.259Z,10.84
2018-10-12T02:32:21.136Z,10.83
2018-10-12T02:33:21.011Z,10.88
2018-10-12T02:34:20.885Z,10.78
2018-10-12T02:35:20.757Z,10.80
2018-10-12T02:36:20.633Z,10.73
2018-10-12T02:37:20.506Z,10.70
2018-10-12T02:38:20.382Z,10.70
2018-10-12T02:39:20.255Z,10.71
2018-10-12T02:40:20.141Z,10.66
2018-10-12T02:41:20.007Z,10.68
2018-10-12T02:42:19.880Z,10.74
2018-10-12T02:43:19.754Z,10.77
2018-10-12T02:44:19.634Z,10.86
2018-10-12T02:45:19.504Z,10.81
2018-10-12T02:46:19.380Z,10.76
2018-10-12T02:47:19.253Z,10.76
2018-10-12T02:48:19.128Z,10.80
2018-10-12T02:49:19.004Z,10.88
2018-10-12T02:50:18.876Z,10.83
2018-10-12T02:51:18.750Z,10.84
2018-10-12T02:52:18.626Z,10.84
2018-10-12T02:53:18.509Z,10.81
2018-10-12T02:54:18.375Z,10.81
2018-10-12T02:55:18.249Z,10.84
2018-10-12T02:56:18.125Z,10.86
2018-10-12T02:57:17.996Z,10.91
2018-10-12T02:58:17.874Z,10.98
2018-10-12T02:59:17.745Z,10.99
2018-10-12T03:00:17.621Z,10.95
2018-10-12T03:01:17.496Z,10.88
2018-10-12T03:02:17.370Z,10.94
2018-10-12T03:03:17.242Z,10.95
2018-10-12T03:04:17.119Z,11.02
2018-10-12T03:05:16.991Z,11.11
2018-10-12T03:06:16.866Z,11.09
2018-10-12T03:07:16.739Z,11.13
2018-10-12T03:08:16.617Z,11.13
2018-10-12T03:09:16.489Z,11.10
2018-10-12T03:10:16.364Z,11.20
2018-10-12T03:11:16.236Z,11.02
2018-10-12T03:12:16.119Z,11.01
2018-10-12T03:13:15.987Z,10.98
2018-10-12T03:14:15.862Z,11.02
2018-10-12T03:15:15.734Z,10.99
2018-10-12T03:16:15.609Z,10.98
2018-10-12T03:17:15.484Z,10.91
2018-10-12T03:18:15.358Z,10.92
2018-10-12T03:19:15.231Z,10.99
2018-10-12T03:20:15.105Z,11.01
2018-10-12T03:21:14.987Z,11.07
2018-10-12T03:22:14.855Z,11.06
2018-10-12T03:23:14.729Z,11.10
2018-10-12T03:24:14.605Z,11.02
2018-10-12T03:25:14.478Z,10.91
2018-10-12T03:26:14.352Z,10.99
2018-10-12T03:27:14.231Z,10.89
2018-10-12T03:28:14.101Z,10.91
2018-10-12T03:29:13.976Z,10.94
2018-10-12T03:30:13.851Z,10.84
2018-10-12T03:31:13.723Z,10.94
2018-10-12T03:32:13.598Z,10.95
2018-10-12T03:33:13.473Z,10.86
2018-10-12T03:34:13.348Z,10.91
2018-10-12T03:35:13.221Z,10.91
2018-10-12T03:36:13.096Z,10.94
2018-10-12T03:37:13.030Z,10.91
2018-10-12T03:38:12.845Z,10.98
2018-10-12T03:39:12.717Z,10.91
2018-10-12T03:40:12.594Z,10.88
2018-10-12T03:41:12.464Z,10.92
2018-10-12T03:42:12.341Z,10.91
2018-10-12T03:43:12.214Z,10.88
2018-10-12T03:44:12.088Z,10.91
2018-10-12T03:45:11.964Z,10.83
2018-10-12T03:46:11.838Z,10.81
2018-10-12T03:47:11.712Z,10.83
2018-10-12T03:48:11.586Z,10.83
2018-10-12T03:49:11.461Z,10.81
2018-10-12T03:50:11.334Z,10.81
2018-10-12T03:51:11.209Z,10.70
2018-10-12T03:52:11.081Z,10.73
2018-10-12T03:53:10.958Z,10.74
2018-10-12T03:54:10.834Z,10.65
2018-10-12T03:55:10.705Z,10.76
2018-10-12T03:56:10.578Z,10.77
2018-10-12T03:57:10.455Z,10.73
2018-10-12T03:58:10.326Z,10.65
2018-10-12T03:59:10.201Z,10.71
2018-10-12T04:00:10.083Z,10.59
2018-10-12T04:01:09.950Z,10.59
2018-10-12T04:02:09.834Z,10.60
2018-10-12T04:03:09.695Z,10.51
2018-10-12T04:04:09.571Z,10.47
2018-10-12T04:05:09.446Z,10.52
2018-10-12T04:06:09.320Z,10.44
2018-10-12T04:07:09.192Z,10.40
2018-10-12T04:08:09.068Z,10.33
2018-10-12T04:09:08.946Z,10.30
2018-10-12T04:10:08.816Z,10.39
2018-10-12T04:11:08.689Z,10.32
2018-10-12T04:12:08.562Z,10.22
2018-10-12T04:13:08.438Z,10.28
2018-10-12T04:14:08.313Z,10.21
2018-10-12T04:15:08.186Z,10.21
2018-10-12T04:16:08.058Z,10.17
2018-10-12T04:17:07.940Z,10.22
2018-10-12T04:18:07.807Z,10.21
2018-10-12T04:19:07.679Z,10.24
2018-10-12T04:20:07.554Z,10.24
2018-10-12T04:21:07.428Z,10.32
2018-10-12T04:22:07.303Z,10.28
2018-10-12T04:23:07.181Z,10.26
2018-10-12T04:24:07.049Z,10.25
2018-10-12T04:25:06.925Z,10.22
2018-10-12T04:26:06.798Z,10.15
2018-10-12T04:27:06.674Z,10.12
2018-10-12T04:28:06.545Z,10.18
2018-10-12T04:29:06.420Z,10.12
2018-10-12T04:30:06.295Z,10.12
2018-10-12T04:31:06.169Z,10.17
2018-10-12T04:32:06.044Z,10.07
2018-10-12T04:33:05.915Z,10.09
2018-10-12T04:34:05.786Z,10.04
2018-10-12T04:35:05.661Z,9.89
2018-10-12T04:36:05.535Z,9.88
2018-10-12T04:37:05.408Z,9.83
2018-10-12T04:38:05.283Z,9.73
2018-10-12T04:39:05.157Z,9.61
2018-10-12T04:40:05.031Z,9.78
2018-10-12T04:41:04.904Z,9.70
2018-10-12T04:42:04.780Z,9.83
2018-10-12T04:43:04.650Z,9.99
2018-10-12T04:44:04.523Z,9.99
2018-10-12T04:45:04.398Z,9.93
2018-10-12T04:46:04.272Z,10.06
2018-10-12T04:47:04.192Z,9.93
2018-10-12T04:48:04.018Z,10.06
2018-10-12T04:49:03.891Z,10.04
2018-10-12T04:50:03.766Z,10.14
2018-10-12T04:51:03.638Z,10.14
2018-10-12T04:52:03.517Z,10.14
2018-10-12T04:53:03.390Z,10.15
2018-10-12T04:54:03.259Z,10.09
2018-10-12T04:55:03.134Z,10.15
2018-10-12T04:56:03.007Z,10.14
2018-10-12T04:57:02.879Z,10.15
2018-10-12T04:58:02.755Z,10.17
2018-10-12T04:59:02.629Z,10.19
2018-10-12T05:00:02.503Z,10.14
2018-10-12T05:01:02.395Z,10.14
2018-10-12T05:02:02.247Z,10.14
2018-10-12T05:03:02.121Z,10.06
2018-10-12T05:04:01.994Z,10.04
2018-10-12T05:05:01.869Z,10.12
2018-10-12T05:06:01.747Z,10.03
2018-10-12T05:07:01.614Z,9.97
2018-10-12T05:08:01.488Z,10.03
2018-10-12T05:09:01.362Z,10.09
2018-10-12T05:10:01.236Z,10.03
2018-10-12T05:11:01.110Z,10.06
2018-10-12T05:12:00.981Z,10.12
2018-10-12T05:13:00.858Z,10.09
2018-10-12T05:14:00.731Z,10.21
2018-10-12T05:15:00.601Z,10.14
2018-10-12T05:16:00.475Z,10.15
2018-10-12T05:17:00.349Z,10.09
2018-10-12T05:18:00.225Z,10.18
2018-10-12T05:19:00.100Z,10.14
2018-10-12T05:19:59.969Z,10.19
2018-10-12T05:20:59.847Z,10.22
2018-10-12T05:21:59.777Z,10.15
2018-10-12T05:22:59.590Z,10.19
2018-10-12T05:23:59.478Z,10.33
2018-10-12T05:24:59.338Z,10.32
2018-10-12T05:25:59.213Z,10.33
2018-10-12T05:26:59.090Z,10.28
2018-10-12T05:27:58.962Z,10.25
2018-10-12T05:28:58.875Z,10.42
2018-10-12T05:29:58.746Z,10.37
2018-10-12T05:30:58.579Z,10.40
2018-10-12T05:31:58.453Z,10.44
2018-10-12T05:32:58.325Z,10.39
2018-10-12T05:33:58.200Z,10.44
2018-10-12T05:34:58.073Z,10.37
2018-10-12T05:35:57.985Z,10.37
2018-10-12T05:36:57.823Z,10.30
2018-10-12T05:37:57.703Z,10.25
2018-10-12T05:38:57.568Z,10.22
2018-10-12T05:39:57.443Z,10.12
2018-10-12T05:40:57.316Z,10.15
2018-10-12T05:41:57.198Z,10.17
2018-10-12T05:42:57.103Z,10.17
2018-10-12T05:43:56.938Z,10.24
2018-10-12T05:44:56.812Z,10.18
2018-10-12T05:45:56.686Z,10.04
2018-10-12T05:46:56.559Z,10.19
2018-10-12T05:47:56.434Z,10.21
2018-10-12T05:48:56.348Z,10.24
2018-10-12T05:49:56.181Z,10.17
2018-10-12T05:50:56.056Z,10.19
2018-10-12T05:51:55.927Z,10.26
2018-10-12T05:52:55.809Z,10.26
2018-10-12T05:53:55.676Z,10.24
2018-10-12T05:54:55.551Z,10.28
2018-10-12T05:55:55.489Z,10.26
2018-10-12T05:56:55.300Z,10.15
2018-10-12T05:57:55.174Z,10.21
2018-10-12T05:58:55.061Z,10.30
2018-10-12T05:59:54.928Z,10.32
2018-10-12T06:00:54.795Z,10.30
2018-10-12T06:01:54.674Z,10.25
2018-10-12T06:02:54.544Z,10.32
2018-10-12T06:03:54.418Z,10.22
2018-10-12T06:04:54.292Z,10.30
2018-10-12T06:05:54.172Z,10.30
2018-10-12T06:06:54.039Z,10.26
2018-10-12T06:07:53.917Z,10.37
2018-10-12T06:08:53.787Z,10.37
2018-10-12T06:09:53.796Z,10.43
2018-10-12T06:10:53.551Z,10.52
2018-10-12T06:11:53.407Z,10.56
2018-10-12T06:12:53.282Z,10.59
2018-10-12T06:13:53.155Z,10.59
2018-10-12T06:14:53.029Z,10.63
2018-10-12T06:15:52.965Z,10.68
2018-10-12T06:16:52.777Z,10.62
2018-10-12T06:17:52.651Z,10.65
2018-10-12T06:18:52.524Z,10.73
2018-10-12T06:19:52.402Z,10.70
2018-10-12T06:20:52.273Z,10.73
2018-10-12T06:21:52.147Z,10.77
2018-10-12T06:22:52.021Z,10.77
2018-10-12T06:23:51.895Z,10.76
2018-10-12T06:24:51.768Z,10.71
2018-10-12T06:25:51.643Z,10.88
2018-10-12T06:26:51.577Z,10.84
2018-10-12T06:27:51.391Z,10.80
2018-10-12T06:28:51.273Z,10.92
2018-10-12T06:29:51.140Z,10.94
2018-10-12T06:30:51.014Z,10.95
2018-10-12T06:31:50.889Z,10.91
2018-10-12T06:32:50.802Z,10.95
2018-10-12T06:33:50.639Z,10.89
2018-10-12T06:34:50.514Z,10.89
2018-10-12T06:35:50.385Z,10.89
2018-10-12T06:36:50.259Z,10.92
2018-10-12T06:37:50.134Z,10.91
2018-10-12T06:38:50.011Z,11.01
2018-10-12T06:39:49.880Z,10.91
2018-10-12T06:40:49.775Z,10.84
2018-10-12T06:41:49.735Z,10.83
2018-10-12T06:42:49.505Z,10.78
2018-10-12T06:43:49.385Z,10.84
2018-10-12T06:44:49.259Z,10.83
2018-10-12T06:45:49.130Z,10.83
2018-10-12T06:46:49.119Z,10.91
2018-10-12T06:47:48.878Z,10.91
2018-10-12T06:48:48.752Z,10.89
2018-10-12T06:49:48.626Z,10.96
2018-10-12T06:50:48.501Z,11.02
2018-10-12T06:51:48.377Z,10.95
2018-10-12T06:52:48.251Z,10.95
2018-10-12T06:53:48.185Z,10.96
2018-10-12T06:54:47.999Z,10.98
2018-10-12T06:55:47.874Z,10.98
2018-10-12T06:56:47.746Z,10.98
2018-10-12T06:57:47.622Z,10.96
2018-10-12T06:58:47.495Z,11.09
2018-10-12T06:59:47.397Z,11.06
2018-10-12T07:00:47.245Z,11.13
2018-10-12T07:01:47.119Z,11.25
2018-10-12T07:02:46.995Z,11.41
2018-10-12T07:03:46.869Z,11.41
2018-10-12T07:04:46.743Z,11.59
2018-10-12T07:05:46.658Z,11.78
2018-10-12T07:06:46.490Z,12.02
2018-10-12T07:07:46.368Z,12.11
2018-10-12T07:08:46.243Z,12.42
2018-10-12T07:09:46.117Z,12.57
2018-10-12T07:10:45.990Z,12.71
2018-10-12T07:11:45.866Z,12.95
2018-10-12T07:12:45.739Z,13.11
2018-10-12T07:13:45.653Z,13.18
2018-10-12T07:14:45.492Z,13.29
2018-10-12T07:15:45.371Z,13.43
2018-10-12T07:16:45.244Z,13.58
2018-10-12T07:17:45.121Z,13.84
2018-10-12T07:18:44.994Z,13.88
2018-10-12T07:19:44.868Z,13.92
2018-10-12T07:20:44.744Z,14.07
2018-10-12T07:21:44.621Z,14.29
2018-10-12T07:22:44.506Z,14.61
2018-10-12T07:23:44.373Z,14.74
2018-10-12T07:24:44.250Z,14.84
2018-10-12T07:25:44.178Z,14.94
2018-10-12T07:26:44.005Z,15.06
2018-10-12T07:27:43.879Z,15.11
2018-10-12T07:28:43.758Z,14.93
2018-10-12T07:29:43.636Z,14.86
2018-10-12T07:30:43.511Z,14.84
2018-10-12T07:31:43.389Z,15.05
2018-10-12T07:32:43.265Z,15.11
2018-10-12T07:33:43.142Z,15.15
2018-10-12T07:34:43.020Z,14.87
2018-10-12T07:35:42.898Z,14.88
2018-10-12T07:36:42.773Z,14.62
2018-10-12T07:37:42.846Z,14.57
2018-10-12T07:38:42.527Z,14.56
2018-10-12T07:39:42.411Z,14.75
2018-10-12T07:40:42.288Z,14.88
2018-10-12T07:41:42.163Z,14.91
2018-10-12T07:42:42.041Z,15.08
2018-10-12T07:43:41.914Z,15.05
2018-10-12T07:44:41.790Z,15.09
2018-10-12T07:45:41.669Z,15.26
2018-10-12T07:46:41.549Z,15.41
2018-10-12T07:47:41.428Z,15.43
2018-10-12T07:48:41.302Z,15.64
2018-10-12T07:49:41.180Z,15.96
2018-10-12T07:50:41.055Z,16.12
2018-10-12T07:51:40.934Z,16.26
2018-10-12T07:52:40.813Z,16.37
2018-10-12T07:53:40.688Z,16.30
2018-10-12T07:54:40.573Z,16.52
2018-10-12T07:55:40.446Z,16.68
2018-10-12T07:56:40.325Z,16.63
2018-10-12T07:57:40.204Z,16.55
2018-10-12T07:58:40.079Z,16.59
2018-10-12T07:59:39.958Z,16.35
2018-10-12T08:00:39.945Z,16.42
2018-10-12T08:01:39.715Z,16.16
2018-10-12T08:02:39.594Z,16.22
2018-10-12T08:03:39.474Z,16.20
2018-10-12T08:04:39.369Z,16.20
2018-10-12T08:05:39.231Z,16.22
2018-10-12T08:06:39.116Z,16.37
2018-10-12T08:07:38.987Z,16.35
2018-10-12T08:08:38.867Z,16.20
2018-10-12T08:09:38.808Z,16.38
2018-10-12T08:10:38.623Z,16.68
2018-10-12T08:11:38.503Z,16.59
2018-10-12T08:12:38.379Z,16.60
2018-10-12T08:13:38.300Z,16.55
2018-10-12T08:14:38.138Z,16.59
2018-10-12T08:15:38.017Z,16.68
2018-10-12T08:16:37.894Z,16.90
2018-10-12T08:17:37.775Z,17.11
2018-10-12T08:18:37.654Z,17.48
2018-10-12T08:19:37.534Z,17.59
2018-10-12T08:20:37.411Z,17.54
2018-10-12T08:21:37.290Z,17.63
2018-10-12T08:22:37.167Z,17.48
2018-10-12T08:23:37.048Z,17.54
2018-10-12T08:24:36.934Z,17.63
2018-10-12T08:25:36.808Z,17.76
2018-10-12T08:26:36.688Z,17.74
2018-10-12T08:27:36.567Z,17.54
2018-10-12T08:28:36.445Z,17.59
2018-10-12T08:29:36.324Z,17.62
2018-10-12T08:30:36.207Z,17.94
2018-10-12T08:31:36.140Z,17.92
2018-10-12T08:32:35.966Z,18.02
2018-10-12T08:33:35.841Z,18.02
2018-10-12T08:34:35.722Z,18.09
2018-10-12T08:35:35.602Z,18.13
2018-10-12T08:36:35.822Z,18.12
2018-10-12T08:37:35.361Z,18.33
2018-10-12T08:38:35.241Z,18.36
2018-10-12T08:39:35.123Z,18.37
2018-10-12T08:40:35.000Z,18.39
2018-10-12T08:41:34.879Z,18.47
2018-10-12T08:42:34.760Z,18.39
2018-10-12T08:43:34.639Z,18.34
2018-10-12T08:44:34.522Z,18.25
2018-10-12T08:45:34.403Z,18.31
2018-10-12T08:46:34.281Z,18.47
2018-10-12T08:47:34.162Z,18.42
2018-10-12T08:48:34.041Z,18.28
2018-10-12T08:49:33.923Z,18.58
2018-10-12T08:50:33.914Z,18.29
2018-10-12T08:51:33.680Z,18.25
2018-10-12T08:52:33.561Z,18.37
2018-10-12T08:53:33.450Z,18.46
2018-10-12T08:54:33.326Z,18.82
2018-10-12T08:55:33.287Z,19.08
2018-10-12T08:56:33.083Z,18.83
2018-10-12T08:57:32.965Z,18.70
2018-10-12T08:58:32.844Z,18.73
2018-10-12T08:59:32.735Z,18.82
2018-10-12T09:00:32.604Z,19.13
2018-10-12T09:01:32.484Z,19.35
2018-10-12T09:02:32.367Z,19.38
2018-10-12T09:03:32.251Z,19.69
2018-10-12T09:04:32.127Z,19.84
2018-10-12T09:05:32.010Z,19.87
2018-10-12T09:06:31.894Z,19.80
2018-10-12T09:07:31.773Z,19.97
2018-10-12T09:08:31.656Z,19.87
2018-10-12T09:09:31.569Z,20.06
2018-10-12T09:10:31.413Z,20.18
2018-10-12T09:11:31.294Z,20.15
2018-10-12T09:12:31.174Z,20.35
2018-10-12T09:13:31.060Z,20.18
2018-10-12T09:14:30.938Z,20.20
2018-10-12T09:15:30.818Z,20.16
2018-10-12T09:16:30.704Z,20.10
2018-10-12T09:17:30.583Z,19.84
2018-10-12T09:18:30.466Z,19.65
2018-10-12T09:19:30.347Z,19.79
2018-10-12T09:20:30.339Z,20.12
2018-10-12T09:21:30.111Z,20.30
2018-10-12T09:22:29.992Z,20.64
2018-10-12T09:23:29.874Z,20.76
2018-10-12T09:24:29.759Z,20.69
2018-10-12T09:25:29.640Z,20.76
2018-10-12T09:26:29.519Z,20.86
2018-10-12T09:27:29.399Z,20.59
2018-10-12T09:28:29.283Z,20.76
2018-10-12T09:29:29.167Z,20.93
2018-10-12T09:30:29.046Z,20.79
2018-10-12T09:31:28.928Z,20.59
2018-10-12T09:32:28.811Z,20.99
2018-10-12T09:33:28.693Z,21.24
2018-10-12T09:34:28.572Z,21.54
2018-10-12T09:35:28.456Z,21.74
2018-10-12T09:36:28.396Z,21.85
2018-10-12T09:37:28.220Z,22.10
2018-10-12T09:38:28.100Z,22.12
2018-10-12T09:39:27.992Z,21.91
2018-10-12T09:40:27.867Z,22.02
2018-10-12T09:41:27.750Z,22.10
2018-10-12T09:42:27.635Z,22.16
2018-10-12T09:43:27.516Z,21.71
2018-10-12T09:44:27.399Z,21.67
2018-10-12T09:45:27.281Z,21.90
2018-10-12T09:46:27.162Z,21.91
2018-10-12T09:47:27.048Z,21.36
2018-10-12T09:48:26.930Z,21.44
2018-10-12T09:49:26.815Z,21.60
2018-10-12T09:50:26.786Z,21.82
2018-10-12T09:51:26.578Z,21.66
2018-10-12T09:52:26.464Z,21.78
2018-10-12T09:53:26.343Z,21.74
2018-10-12T09:54:26.228Z,21.41
2018-10-12T09:55:26.112Z,21.39
2018-10-12T09:56:25.997Z,21.64
2018-10-12T09:57:25.881Z,21.75
2018-10-12T09:58:25.763Z,21.51
2018-10-12T09:59:25.658Z,21.63
2018-10-12T10:00:25.524Z,21.59
2018-10-12T10:01:25.409Z,21.69
2018-10-12T10:02:25.322Z,21.97
2018-10-12T10:03:25.173Z,21.79
2018-10-12T10:04:25.059Z,21.60
2018-10-12T10:05:24.940Z,21.36
2018-10-12T10:06:24.824Z,21.60
2018-10-12T10:07:24.716Z,21.90
2018-10-12T10:08:24.701Z,21.90
2018-10-12T10:09:24.478Z,21.83
2018-10-12T10:10:24.397Z,21.64
2018-10-12T10:11:24.238Z,21.17
2018-10-12T10:12:24.121Z,21.34
2018-10-12T10:13:24.005Z,21.51
2018-10-12T10:14:23.905Z,21.56
2018-10-12T10:15:23.984Z,21.63
2018-10-12T10:16:23.663Z,21.05
2018-10-12T10:17:23.536Z,21.01
2018-10-12T10:18:23.419Z,21.35
2018-10-12T10:19:23.388Z,21.26
2018-10-12T10:20:23.183Z,21.57
2018-10-12T10:21:23.070Z,21.92
2018-10-12T10:22:23.016Z,21.79
2018-10-12T10:23:22.833Z,21.67
2018-10-12T10:24:22.716Z,21.50
2018-10-12T10:25:22.602Z,21.41
2018-10-12T10:26:22.485Z,21.50
2018-10-12T10:27:22.365Z,21.36
2018-10-12T10:28:22.250Z,21.53
2018-10-12T10:29:22.184Z,21.90
2018-10-12T10:30:22.011Z,21.66
2018-10-12T10:31:21.895Z,21.42
2018-10-12T10:32:21.885Z,21.27
2018-10-12T10:33:21.661Z,21.02
2018-10-12T10:34:21.544Z,21.02
2018-10-12T10:35:21.426Z,21.16
2018-10-12T10:36:21.310Z,21.35
2018-10-12T10:37:21.193Z,21.56
2018-10-12T10:38:21.075Z,21.75
2018-10-12T10:39:20.958Z,21.91
2018-10-12T10:40:20.839Z,21.85
2018-10-12T10:41:20.722Z,21.59
2018-10-12T10:42:20.605Z,21.74
2018-10-12T10:43:20.488Z,21.74
2018-10-12T10:44:20.371Z,21.76
2018-10-12T10:45:20.257Z,21.09
2018-10-12T10:46:20.216Z,21.38
2018-10-12T10:47:20.018Z,21.64
2018-10-12T10:48:19.900Z,21.81
2018-10-12T10:49:19.783Z,22.19
2018-10-12T10:50:19.665Z,22.46
2018-10-12T10:51:19.549Z,22.89
2018-10-12T10:52:19.434Z,22.87
2018-10-12T10:53:19.313Z,22.84
2018-10-12T10:54:19.200Z,22.92
2018-10-12T10:55:19.084Z,22.60
2018-10-12T10:56:18.963Z,22.35
2018-10-12T10:57:18.846Z,22.49
2018-10-12T10:58:18.729Z,22.28
2018-10-12T10:59:18.611Z,22.27
2018-10-12T11:00:18.492Z,22.14
2018-10-12T11:01:18.377Z,21.95
2018-10-12T11:02:18.257Z,21.92
2018-10-12T11:03:18.145Z,21.51
2018-10-12T11:04:18.027Z,21.59
2018-10-12T11:05:17.905Z,21.72
2018-10-12T11:06:17.802Z,21.66
2018-10-12T11:07:17.671Z,21.71
2018-10-12T11:08:17.556Z,21.63
2018-10-12T11:09:17.435Z,21.63
2018-10-12T11:10:17.319Z,21.50
2018-10-12T11:11:18.839Z,21.59
2018-10-12T11:12:17.125Z,21.66
2018-10-12T11:13:17.016Z,21.51
2018-10-12T11:14:16.847Z,21.48
2018-10-12T11:15:16.728Z,21.54
2018-10-12T11:16:16.609Z,21.64
2018-10-12T11:17:16.494Z,21.71
2018-10-12T11:18:16.373Z,21.60
2018-10-12T11:19:16.255Z,21.35
2018-10-12T11:20:16.138Z,21.29
2018-10-12T11:21:16.021Z,21.21
2018-10-12T11:22:15.914Z,21.24
2018-10-12T11:23:15.781Z,21.26
2018-10-12T11:24:15.675Z,21.27
2018-10-12T11:25:15.548Z,21.53
2018-10-12T11:26:15.459Z,21.56
2018-10-12T11:27:15.311Z,21.64
2018-10-12T11:28:15.191Z,21.74
2018-10-12T11:29:15.080Z,21.54
2018-10-12T11:30:14.956Z,21.54
2018-10-12T11:31:14.841Z,21.32
2018-10-12T11:32:14.719Z,20.86
2018-10-12T11:33:14.601Z,21.19
2018-10-12T11:34:14.485Z,21.09
2018-10-12T11:35:14.363Z,20.93
2018-10-12T11:36:14.249Z,20.93
2018-10-12T11:37:14.127Z,21.11
2018-10-12T11:38:14.026Z,21.26
2018-10-12T11:39:13.890Z,21.32
2018-10-12T11:40:13.772Z,21.01
2018-10-12T11:41:13.653Z,21.04
2018-10-12T11:42:13.533Z,21.08
2018-10-12T11:43:13.415Z,21.14
2018-10-12T11:44:13.296Z,20.86
2018-10-12T11:45:13.213Z,20.71
2018-10-12T11:46:13.063Z,20.64
2018-10-12T11:47:12.946Z,20.76
2018-10-12T11:48:12.821Z,20.58
2018-10-12T11:49:12.705Z,20.51
2018-10-12T11:50:12.586Z,20.35
2018-10-12T11:51:12.466Z,20.31
2018-10-12T11:52:12.459Z,20.27
2018-10-12T11:53:12.239Z,20.39
2018-10-12T11:54:12.112Z,20.34
2018-10-12T11:55:11.989Z,20.38
2018-10-12T11:56:11.871Z,20.59
2018-10-12T11:57:11.754Z,20.87
2018-10-12T11:58:11.633Z,20.74
2018-10-12T11:59:11.517Z,20.90
2018-10-12T12:00:11.401Z,20.71
2018-10-12T12:01:11.466Z,20.61
2018-10-12T12:02:11.194Z,20.74
2018-10-12T12:03:11.039Z,20.96
2018-10-12T12:04:10.924Z,21.16
2018-10-12T12:05:10.801Z,21.05
2018-10-12T12:06:10.685Z,21.04
2018-10-12T12:07:10.571Z,20.93
2018-10-12T12:08:10.445Z,20.96
2018-10-12T12:09:10.326Z,20.95
2018-10-12T12:10:10.210Z,21.16
2018-10-12T12:11:10.089Z,21.26
2018-10-12T12:12:09.972Z,21.20
2018-10-12T12:13:09.853Z,21.20
2018-10-12T12:14:09.731Z,21.20
2018-10-12T12:15:09.616Z,21.17
2018-10-12T12:16:09.497Z,21.36
2018-10-12T12:17:09.376Z,21.30
2018-10-12T12:18:09.256Z,21.27
2018-10-12T12:19:09.183Z,21.39
2018-10-12T12:20:09.022Z,21.29
2018-10-12T12:21:08.904Z,21.38
2018-10-12T12:22:08.785Z,21.14
2018-10-12T12:23:08.666Z,21.04
2018-10-12T12:24:08.545Z,21.01
2018-10-12T12:25:08.428Z,21.39
2018-10-12T12:26:08.307Z,21.61
2018-10-12T12:27:08.191Z,21.42
2018-10-12T12:28:08.072Z,21.34
2018-10-12T12:29:07.956Z,21.53
2018-10-12T12:30:07.837Z,21.69
2018-10-12T12:31:07.719Z,21.90
2018-10-12T12:32:07.604Z,21.81
2018-10-12T12:33:07.479Z,21.88
2018-10-12T12:34:07.363Z,21.71
2018-10-12T12:35:07.461Z,21.78
2018-10-12T12:36:07.426Z,21.71
2018-10-12T12:37:07.005Z,21.82
2018-10-12T12:38:06.885Z,21.97
2018-10-12T12:39:06.768Z,21.90
2018-10-12T12:40:06.659Z,21.74
2018-10-12T12:41:06.532Z,21.81
2018-10-12T12:42:06.413Z,21.88
2018-10-12T12:43:06.294Z,21.88
2018-10-12T12:44:06.193Z,21.99
2018-10-12T12:45:06.057Z,21.94
2018-10-12T12:46:05.940Z,21.91
2018-10-12T12:47:05.824Z,21.99
2018-10-12T12:48:05.846Z,22.02
2018-10-12T12:49:06.115Z,22.13
2018-10-12T12:50:05.481Z,22.10
2018-10-12T12:51:05.351Z,22.25
2018-10-12T12:52:05.238Z,22.41